sensor_id;sensor_type;location;lat;lon;timestamp;P1;durP1;ratioP1;P2;durP2;ratioP2
51594;SDS011;37677;53.254;6.594;2022-09-24T00:01:19;45.05;;;40.20;;
51594;SDS011;37677;53.254;6.594;2022-09-24T00:03:51;45.08;;;40.55;;
51594;SDS011;37677;53.254;6.594;2022-09-24T00:06:24;47.15;;;42.10;;
51594;SDS011;37677;53.254;6.594;2022-09-24T00:08:52;47.58;;;42.45;;
51594;SDS011;37677;53.254;6.594;2022-09-24T00:11:24;49.28;;;41.80;;
51594;SDS011;37677;53.254;6.594;2022-09-24T00:13:52;47.35;;;41.67;;
51594;SDS011;37677;53.254;6.594;2022-09-24T00:16:19;47.00;;;42.00;;
51594;SDS011;37677;53.254;6.594;2022-09-24T00:18:46;46.40;;;41.47;;
51594;SDS011;37677;53.254;6.594;2022-09-24T00:23:44;48.67;;;43.63;;
51594;SDS011;37677;53.254;6.594;2022-09-24T00:26:14;51.33;;;43.65;;
51594;SDS011;37677;53.254;6.594;2022-09-24T00:28:58;51.05;;;45.50;;
51594;SDS011;37677;53.254;6.594;2022-09-24T00:31:24;53.33;;;46.20;;
51594;SDS011;37677;53.254;6.594;2022-09-24T00:33:51;51.08;;;45.47;;
51594;SDS011;37677;53.254;6.594;2022-09-24T00:36:17;55.13;;;46.22;;
51594;SDS011;37677;53.254;6.594;2022-09-24T00:38:46;58.22;;;48.78;;
51594;SDS011;37677;53.254;6.594;2022-09-24T00:41:14;55.28;;;48.55;;
51594;SDS011;37677;53.254;6.594;2022-09-24T00:43:40;52.92;;;47.33;;
51594;SDS011;37677;53.254;6.594;2022-09-24T00:46:13;60.20;;;48.20;;
51594;SDS011;37677;53.254;6.594;2022-09-24T00:49:02;56.40;;;50.20;;
51594;SDS011;37677;53.254;6.594;2022-09-24T00:51:34;57.72;;;51.42;;
51594;SDS011;37677;53.254;6.594;2022-09-24T00:54:03;59.95;;;52.10;;
51594;SDS011;37677;53.254;6.594;2022-09-24T00:56:34;58.42;;;52.15;;
51594;SDS011;37677;53.254;6.594;2022-09-24T00:59:02;64.95;;;54.03;;
51594;SDS011;37677;53.254;6.594;2022-09-24T01:01:30;63.08;;;54.08;;
51594;SDS011;37677;53.254;6.594;2022-09-24T01:03:57;66.55;;;58.28;;
51594;SDS011;37677;53.254;6.594;2022-09-24T01:06:24;65.78;;;56.67;;
51594;SDS011;37677;53.254;6.594;2022-09-24T01:08:50;65.07;;;56.92;;
51594;SDS011;37677;53.254;6.594;2022-09-24T01:22:02;71.43;;;61.05;;
51594;SDS011;37677;53.254;6.594;2022-09-24T01:30:30;71.85;;;63.97;;
51594;SDS011;37677;53.254;6.594;2022-09-24T01:33:06;72.25;;;62.35;;
51594;SDS011;37677;53.254;6.594;2022-09-24T01:35:38;72.63;;;64.68;;
51594;SDS011;37677;53.254;6.594;2022-09-24T01:38:10;71.05;;;62.60;;
51594;SDS011;37677;53.254;6.594;2022-09-24T01:40:40;71.30;;;60.53;;
51594;SDS011;37677;53.254;6.594;2022-09-24T01:43:08;74.00;;;64.60;;
51594;SDS011;37677;53.254;6.594;2022-09-24T01:45:35;79.30;;;64.65;;
51594;SDS011;37677;53.254;6.594;2022-09-24T01:48:03;71.70;;;63.70;;
51594;SDS011;37677;53.254;6.594;2022-09-24T01:50:32;74.88;;;66.38;;
51594;SDS011;37677;53.254;6.594;2022-09-24T01:53:07;80.00;;;67.78;;
51594;SDS011;37677;53.254;6.594;2022-09-24T01:55:50;90.00;;;73.03;;
51594;SDS011;37677;53.254;6.594;2022-09-24T01:58:39;108.50;;;76.93;;
51594;SDS011;37677;53.254;6.594;2022-09-24T02:01:16;119.13;;;80.30;;
51594;SDS011;37677;53.254;6.594;2022-09-24T02:03:50;110.40;;;77.43;;
51594;SDS011;37677;53.254;6.594;2022-09-24T02:06:42;114.05;;;79.18;;
51594;SDS011;37677;53.254;6.594;2022-09-24T02:12:17;104.97;;;82.10;;
51594;SDS011;37677;53.254;6.594;2022-09-24T02:14:58;113.47;;;86.53;;
51594;SDS011;37677;53.254;6.594;2022-09-24T02:17:37;104.72;;;82.72;;
51594;SDS011;37677;53.254;6.594;2022-09-24T02:20:09;112.60;;;85.60;;
51594;SDS011;37677;53.254;6.594;2022-09-24T02:22:43;107.72;;;85.53;;
51594;SDS011;37677;53.254;6.594;2022-09-24T02:25:13;103.65;;;83.65;;
51594;SDS011;37677;53.254;6.594;2022-09-24T02:27:53;109.75;;;86.35;;
51594;SDS011;37677;53.254;6.594;2022-09-24T02:30:20;90.80;;;78.20;;
51594;SDS011;37677;53.254;6.594;2022-09-24T02:32:46;140.20;;;90.38;;
51594;SDS011;37677;53.254;6.594;2022-09-24T02:35:13;131.07;;;89.75;;
51594;SDS011;37677;53.254;6.594;2022-09-24T02:37:40;110.13;;;84.18;;
51594;SDS011;37677;53.254;6.594;2022-09-24T02:40:08;101.60;;;80.07;;
51594;SDS011;37677;53.254;6.594;2022-09-24T02:42:36;107.45;;;81.50;;
51594;SDS011;37677;53.254;6.594;2022-09-24T02:45:03;112.82;;;83.10;;
51594;SDS011;37677;53.254;6.594;2022-09-24T02:47:30;95.35;;;76.10;;
51594;SDS011;37677;53.254;6.594;2022-09-24T02:49:55;112.10;;;82.05;;
51594;SDS011;37677;53.254;6.594;2022-09-24T02:52:21;107.32;;;81.63;;
51594;SDS011;37677;53.254;6.594;2022-09-24T02:54:48;89.32;;;76.07;;
51594;SDS011;37677;53.254;6.594;2022-09-24T02:57:14;90.68;;;79.05;;
51594;SDS011;37677;53.254;6.594;2022-09-24T02:59:42;88.68;;;75.75;;
51594;SDS011;37677;53.254;6.594;2022-09-24T03:02:09;97.18;;;80.53;;
51594;SDS011;37677;53.254;6.594;2022-09-24T03:04:34;137.48;;;89.78;;
51594;SDS011;37677;53.254;6.594;2022-09-24T03:07:00;102.82;;;81.43;;
51594;SDS011;37677;53.254;6.594;2022-09-24T03:09:27;103.50;;;83.70;;
51594;SDS011;37677;53.254;6.594;2022-09-24T03:11:52;99.93;;;80.85;;
51594;SDS011;37677;53.254;6.594;2022-09-24T03:14:18;98.05;;;80.18;;
51594;SDS011;37677;53.254;6.594;2022-09-24T03:16:44;95.88;;;78.50;;
51594;SDS011;37677;53.254;6.594;2022-09-24T03:19:09;89.93;;;76.80;;
51594;SDS011;37677;53.254;6.594;2022-09-24T03:21:35;94.60;;;76.50;;
51594;SDS011;37677;53.254;6.594;2022-09-24T03:24:01;89.20;;;74.13;;
51594;SDS011;37677;53.254;6.594;2022-09-24T03:26:28;117.80;;;81.15;;
51594;SDS011;37677;53.254;6.594;2022-09-24T03:28:54;131.18;;;83.03;;
51594;SDS011;37677;53.254;6.594;2022-09-24T03:31:19;90.50;;;71.82;;
51594;SDS011;37677;53.254;6.594;2022-09-24T03:33:48;80.22;;;64.65;;
51594;SDS011;37677;53.254;6.594;2022-09-24T03:38:48;102.20;;;66.22;;
51594;SDS011;37677;53.254;6.594;2022-09-24T03:41:15;75.25;;;58.20;;
51594;SDS011;37677;53.254;6.594;2022-09-24T03:43:41;75.05;;;54.88;;
51594;SDS011;37677;53.254;6.594;2022-09-24T03:46:07;114.53;;;64.55;;
51594;SDS011;37677;53.254;6.594;2022-09-24T03:48:34;65.22;;;50.42;;
51594;SDS011;37677;53.254;6.594;2022-09-24T03:51:06;94.68;;;58.03;;
51594;SDS011;37677;53.254;6.594;2022-09-24T03:53:35;74.57;;;54.40;;
51594;SDS011;37677;53.254;6.594;2022-09-24T03:56:02;76.38;;;51.55;;
51594;SDS011;37677;53.254;6.594;2022-09-24T03:58:29;76.88;;;49.35;;
51594;SDS011;37677;53.254;6.594;2022-09-24T04:00:56;53.38;;;35.10;;
51594;SDS011;37677;53.254;6.594;2022-09-24T04:03:22;56.97;;;35.40;;
51594;SDS011;37677;53.254;6.594;2022-09-24T04:05:48;59.42;;;34.17;;
51594;SDS011;37677;53.254;6.594;2022-09-24T04:08:15;52.53;;;31.80;;
51594;SDS011;37677;53.254;6.594;2022-09-24T04:10:46;47.88;;;27.70;;
51594;SDS011;37677;53.254;6.594;2022-09-24T04:13:13;46.92;;;24.45;;
51594;SDS011;37677;53.254;6.594;2022-09-24T04:15:39;39.22;;;22.30;;
51594;SDS011;37677;53.254;6.594;2022-09-24T04:18:05;28.98;;;14.75;;
51594;SDS011;37677;53.254;6.594;2022-09-24T04:20:31;17.92;;;8.90;;
51594;SDS011;37677;53.254;6.594;2022-09-24T04:22:58;20.83;;;8.35;;
51594;SDS011;37677;53.254;6.594;2022-09-24T04:25:24;17.52;;;6.45;;
51594;SDS011;37677;53.254;6.594;2022-09-24T04:27:52;18.55;;;5.07;;
51594;SDS011;37677;53.254;6.594;2022-09-24T04:30:19;17.88;;;4.85;;
51594;SDS011;37677;53.254;6.594;2022-09-24T04:32:46;22.65;;;3.97;;
51594;SDS011;37677;53.254;6.594;2022-09-24T04:35:11;19.33;;;5.13;;
51594;SDS011;37677;53.254;6.594;2022-09-24T04:37:37;20.40;;;3.47;;
51594;SDS011;37677;53.254;6.594;2022-09-24T04:40:03;25.27;;;4.25;;
51594;SDS011;37677;53.254;6.594;2022-09-24T04:42:31;20.00;;;3.83;;
51594;SDS011;37677;53.254;6.594;2022-09-24T04:44:56;17.38;;;3.72;;
51594;SDS011;37677;53.254;6.594;2022-09-24T04:47:22;20.80;;;3.72;;
51594;SDS011;37677;53.254;6.594;2022-09-24T04:49:50;25.50;;;4.50;;
51594;SDS011;37677;53.254;6.594;2022-09-24T04:52:16;21.20;;;3.58;;
51594;SDS011;37677;53.254;6.594;2022-09-24T04:54:42;17.23;;;3.53;;
51594;SDS011;37677;53.254;6.594;2022-09-24T04:57:11;20.52;;;4.05;;
51594;SDS011;37677;53.254;6.594;2022-09-24T04:59:37;23.50;;;3.85;;
51594;SDS011;37677;53.254;6.594;2022-09-24T05:02:03;20.90;;;3.85;;
51594;SDS011;37677;53.254;6.594;2022-09-24T05:04:30;22.02;;;3.88;;
51594;SDS011;37677;53.254;6.594;2022-09-24T05:06:56;15.07;;;3.40;;
51594;SDS011;37677;53.254;6.594;2022-09-24T05:09:22;18.60;;;3.15;;
51594;SDS011;37677;53.254;6.594;2022-09-24T05:11:47;15.65;;;2.97;;
51594;SDS011;37677;53.254;6.594;2022-09-24T05:14:13;16.92;;;3.22;;
51594;SDS011;37677;53.254;6.594;2022-09-24T05:16:39;20.88;;;3.67;;
51594;SDS011;37677;53.254;6.594;2022-09-24T05:19:04;13.45;;;2.80;;
51594;SDS011;37677;53.254;6.594;2022-09-24T05:21:30;14.30;;;3.00;;
51594;SDS011;37677;53.254;6.594;2022-09-24T05:23:56;13.52;;;2.53;;
51594;SDS011;37677;53.254;6.594;2022-09-24T05:26:22;13.15;;;3.22;;
51594;SDS011;37677;53.254;6.594;2022-09-24T05:29:06;14.43;;;3.42;;
51594;SDS011;37677;53.254;6.594;2022-09-24T05:31:32;16.52;;;3.28;;
51594;SDS011;37677;53.254;6.594;2022-09-24T05:33:58;17.38;;;3.35;;
51594;SDS011;37677;53.254;6.594;2022-09-24T05:36:23;13.10;;;3.10;;
51594;SDS011;37677;53.254;6.594;2022-09-24T05:38:51;17.05;;;3.55;;
51594;SDS011;37677;53.254;6.594;2022-09-24T05:41:17;15.35;;;3.03;;
51594;SDS011;37677;53.254;6.594;2022-09-24T05:43:43;20.33;;;4.30;;
51594;SDS011;37677;53.254;6.594;2022-09-24T05:46:09;20.38;;;3.70;;
51594;SDS011;37677;53.254;6.594;2022-09-24T05:48:35;14.73;;;3.63;;
51594;SDS011;37677;53.254;6.594;2022-09-24T05:51:00;21.40;;;3.63;;
51594;SDS011;37677;53.254;6.594;2022-09-24T05:53:27;24.83;;;4.20;;
51594;SDS011;37677;53.254;6.594;2022-09-24T05:55:52;17.88;;;3.30;;
51594;SDS011;37677;53.254;6.594;2022-09-24T05:58:18;21.58;;;3.42;;
51594;SDS011;37677;53.254;6.594;2022-09-24T06:00:44;20.33;;;3.63;;
51594;SDS011;37677;53.254;6.594;2022-09-24T06:03:11;15.60;;;3.17;;
51594;SDS011;37677;53.254;6.594;2022-09-24T06:05:42;23.08;;;4.00;;
51594;SDS011;37677;53.254;6.594;2022-09-24T06:08:10;15.18;;;3.45;;
51594;SDS011;37677;53.254;6.594;2022-09-24T06:10:37;18.70;;;3.42;;
51594;SDS011;37677;53.254;6.594;2022-09-24T06:13:02;23.17;;;4.18;;
51594;SDS011;37677;53.254;6.594;2022-09-24T06:15:28;19.20;;;4.07;;
51594;SDS011;37677;53.254;6.594;2022-09-24T06:17:55;24.88;;;4.70;;
51594;SDS011;37677;53.254;6.594;2022-09-24T06:20:24;22.45;;;3.83;;
51594;SDS011;37677;53.254;6.594;2022-09-24T06:22:50;20.25;;;4.00;;
51594;SDS011;37677;53.254;6.594;2022-09-24T06:25:19;21.13;;;4.20;;
51594;SDS011;37677;53.254;6.594;2022-09-24T06:27:44;20.13;;;3.60;;
51594;SDS011;37677;53.254;6.594;2022-09-24T06:30:28;15.07;;;3.20;;
51594;SDS011;37677;53.254;6.594;2022-09-24T06:33:01;14.90;;;3.47;;
51594;SDS011;37677;53.254;6.594;2022-09-24T06:35:36;17.80;;;3.30;;
51594;SDS011;37677;53.254;6.594;2022-09-24T06:38:03;22.13;;;4.13;;
51594;SDS011;37677;53.254;6.594;2022-09-24T06:40:30;18.58;;;3.83;;
51594;SDS011;37677;53.254;6.594;2022-09-24T06:42:56;19.52;;;3.90;;
51594;SDS011;37677;53.254;6.594;2022-09-24T06:45:22;21.27;;;4.18;;
51594;SDS011;37677;53.254;6.594;2022-09-24T06:47:53;23.55;;;4.03;;
51594;SDS011;37677;53.254;6.594;2022-09-24T06:50:20;17.92;;;4.05;;
51594;SDS011;37677;53.254;6.594;2022-09-24T06:52:47;22.85;;;5.00;;
51594;SDS011;37677;53.254;6.594;2022-09-24T06:55:13;22.25;;;5.20;;
51594;SDS011;37677;53.254;6.594;2022-09-24T06:57:39;18.83;;;3.60;;
51594;SDS011;37677;53.254;6.594;2022-09-24T07:00:05;16.75;;;4.20;;
51594;SDS011;37677;53.254;6.594;2022-09-24T07:02:31;25.00;;;3.80;;
51594;SDS011;37677;53.254;6.594;2022-09-24T07:04:57;19.60;;;3.97;;
51594;SDS011;37677;53.254;6.594;2022-09-24T07:07:23;18.45;;;4.03;;
51594;SDS011;37677;53.254;6.594;2022-09-24T07:09:57;20.75;;;3.70;;
51594;SDS011;37677;53.254;6.594;2022-09-24T07:12:25;20.60;;;4.15;;
51594;SDS011;37677;53.254;6.594;2022-09-24T07:14:52;16.95;;;3.55;;
51594;SDS011;37677;53.254;6.594;2022-09-24T07:17:18;17.25;;;3.83;;
51594;SDS011;37677;53.254;6.594;2022-09-24T07:19:45;20.23;;;4.25;;
51594;SDS011;37677;53.254;6.594;2022-09-24T07:22:10;18.65;;;4.13;;
51594;SDS011;37677;53.254;6.594;2022-09-24T07:24:37;16.30;;;3.45;;
51594;SDS011;37677;53.254;6.594;2022-09-24T07:27:03;18.58;;;3.50;;
51594;SDS011;37677;53.254;6.594;2022-09-24T07:29:29;17.25;;;3.05;;
51594;SDS011;37677;53.254;6.594;2022-09-24T07:31:55;15.27;;;2.83;;
51594;SDS011;37677;53.254;6.594;2022-09-24T07:34:21;13.98;;;3.25;;
51594;SDS011;37677;53.254;6.594;2022-09-24T07:36:47;10.20;;;2.67;;
51594;SDS011;37677;53.254;6.594;2022-09-24T07:39:13;13.77;;;2.60;;
51594;SDS011;37677;53.254;6.594;2022-09-24T07:41:39;13.57;;;2.60;;
51594;SDS011;37677;53.254;6.594;2022-09-24T07:44:06;10.57;;;2.95;;
51594;SDS011;37677;53.254;6.594;2022-09-24T07:46:33;10.73;;;2.28;;
51594;SDS011;37677;53.254;6.594;2022-09-24T07:48:59;10.50;;;2.20;;
51594;SDS011;37677;53.254;6.594;2022-09-24T07:51:27;8.60;;;2.42;;
51594;SDS011;37677;53.254;6.594;2022-09-24T07:53:53;12.63;;;2.55;;
51594;SDS011;37677;53.254;6.594;2022-09-24T07:56:20;11.45;;;2.90;;
51594;SDS011;37677;53.254;6.594;2022-09-24T07:58:50;12.60;;;2.00;;
51594;SDS011;37677;53.254;6.594;2022-09-24T08:01:17;11.68;;;3.20;;
51594;SDS011;37677;53.254;6.594;2022-09-24T08:03:43;12.82;;;2.92;;
51594;SDS011;37677;53.254;6.594;2022-09-24T08:06:10;14.32;;;3.13;;
51594;SDS011;37677;53.254;6.594;2022-09-24T08:08:37;14.23;;;2.88;;
51594;SDS011;37677;53.254;6.594;2022-09-24T08:11:07;16.08;;;2.90;;
51594;SDS011;37677;53.254;6.594;2022-09-24T08:13:35;12.80;;;3.40;;
51594;SDS011;37677;53.254;6.594;2022-09-24T08:16:01;15.32;;;3.03;;
51594;SDS011;37677;53.254;6.594;2022-09-24T08:18:28;15.77;;;3.05;;
51594;SDS011;37677;53.254;6.594;2022-09-24T08:21:02;11.95;;;2.90;;
51594;SDS011;37677;53.254;6.594;2022-09-24T08:23:29;13.18;;;2.80;;
51594;SDS011;37677;53.254;6.594;2022-09-24T08:25:57;17.80;;;3.88;;
51594;SDS011;37677;53.254;6.594;2022-09-24T08:28:22;18.48;;;3.13;;
51594;SDS011;37677;53.254;6.594;2022-09-24T08:30:48;18.60;;;3.00;;
51594;SDS011;37677;53.254;6.594;2022-09-24T08:33:14;16.67;;;3.30;;
51594;SDS011;37677;53.254;6.594;2022-09-24T08:35:40;20.48;;;4.22;;
51594;SDS011;37677;53.254;6.594;2022-09-24T08:38:06;19.40;;;4.50;;
51594;SDS011;37677;53.254;6.594;2022-09-24T08:40:38;16.75;;;3.67;;
51594;SDS011;37677;53.254;6.594;2022-09-24T08:45:55;16.95;;;3.55;;
51594;SDS011;37677;53.254;6.594;2022-09-24T08:48:43;19.35;;;4.35;;
51594;SDS011;37677;53.254;6.594;2022-09-24T08:51:15;18.92;;;2.92;;
51594;SDS011;37677;53.254;6.594;2022-09-24T08:54:03;17.20;;;3.20;;
51594;SDS011;37677;53.254;6.594;2022-09-24T08:56:34;13.20;;;2.97;;
51594;SDS011;37677;53.254;6.594;2022-09-24T08:59:09;16.55;;;3.38;;
51594;SDS011;37677;53.254;6.594;2022-09-24T09:10:43;12.50;;;2.33;;
51594;SDS011;37677;53.254;6.594;2022-09-24T09:15:42;11.07;;;2.67;;
51594;SDS011;37677;53.254;6.594;2022-09-24T09:18:35;10.30;;;2.65;;
51594;SDS011;37677;53.254;6.594;2022-09-24T09:21:16;11.25;;;2.63;;
51594;SDS011;37677;53.254;6.594;2022-09-24T09:23:47;14.23;;;2.35;;
51594;SDS011;37677;53.254;6.594;2022-09-24T09:26:14;9.88;;;2.63;;
51594;SDS011;37677;53.254;6.594;2022-09-24T09:28:43;14.00;;;2.97;;
51594;SDS011;37677;53.254;6.594;2022-09-24T09:34:06;7.18;;;2.00;;
51594;SDS011;37677;53.254;6.594;2022-09-24T09:44:59;4.07;;;1.70;;
51594;SDS011;37677;53.254;6.594;2022-09-24T09:50:24;6.03;;;1.48;;
51594;SDS011;37677;53.254;6.594;2022-09-24T09:53:17;7.68;;;2.08;;
51594;SDS011;37677;53.254;6.594;2022-09-24T09:55:50;7.20;;;1.80;;
51594;SDS011;37677;53.254;6.594;2022-09-24T09:58:20;7.50;;;2.08;;
51594;SDS011;37677;53.254;6.594;2022-09-24T10:00:48;7.57;;;1.92;;
51594;SDS011;37677;53.254;6.594;2022-09-24T10:03:31;8.00;;;2.20;;
51594;SDS011;37677;53.254;6.594;2022-09-24T10:06:00;10.15;;;3.00;;
51594;SDS011;37677;53.254;6.594;2022-09-24T10:08:29;10.07;;;2.60;;
51594;SDS011;37677;53.254;6.594;2022-09-24T10:10:55;8.23;;;2.10;;
51594;SDS011;37677;53.254;6.594;2022-09-24T10:13:25;12.60;;;2.20;;
51594;SDS011;37677;53.254;6.594;2022-09-24T10:15:55;7.30;;;2.50;;
51594;SDS011;37677;53.254;6.594;2022-09-24T10:21:00;10.10;;;2.60;;
51594;SDS011;37677;53.254;6.594;2022-09-24T10:23:38;10.73;;;2.22;;
51594;SDS011;37677;53.254;6.594;2022-09-24T10:26:08;9.15;;;2.28;;
51594;SDS011;37677;53.254;6.594;2022-09-24T10:28:45;9.10;;;1.90;;
51594;SDS011;37677;53.254;6.594;2022-09-24T10:31:36;8.65;;;2.00;;
51594;SDS011;37677;53.254;6.594;2022-09-24T10:34:16;10.32;;;1.98;;
51594;SDS011;37677;53.254;6.594;2022-09-24T10:36:51;9.02;;;2.40;;
51594;SDS011;37677;53.254;6.594;2022-09-24T10:39:29;12.77;;;2.33;;
51594;SDS011;37677;53.254;6.594;2022-09-24T10:41:55;10.38;;;2.15;;
51594;SDS011;37677;53.254;6.594;2022-09-24T10:44:22;9.88;;;2.05;;
51594;SDS011;37677;53.254;6.594;2022-09-24T10:59:56;8.13;;;1.92;;
51594;SDS011;37677;53.254;6.594;2022-09-24T11:05:40;6.38;;;2.20;;
51594;SDS011;37677;53.254;6.594;2022-09-24T11:11:05;6.70;;;2.17;;
51594;SDS011;37677;53.254;6.594;2022-09-24T11:13:43;8.27;;;2.15;;
51594;SDS011;37677;53.254;6.594;2022-09-24T11:19:22;7.57;;;1.75;;
51594;SDS011;37677;53.254;6.594;2022-09-24T11:38:03;12.57;;;2.80;;
51594;SDS011;37677;53.254;6.594;2022-09-24T11:54:29;13.13;;;3.17;;
51594;SDS011;37677;53.254;6.594;2022-09-24T11:57:14;9.65;;;2.13;;
51594;SDS011;37677;53.254;6.594;2022-09-24T12:05:21;7.97;;;2.10;;
51594;SDS011;37677;53.254;6.594;2022-09-24T12:08:11;10.13;;;2.67;;
51594;SDS011;37677;53.254;6.594;2022-09-24T12:13:47;10.50;;;2.17;;
51594;SDS011;37677;53.254;6.594;2022-09-24T12:16:23;13.05;;;3.15;;
51594;SDS011;37677;53.254;6.594;2022-09-24T12:21:48;11.93;;;2.58;;
51594;SDS011;37677;53.254;6.594;2022-09-24T12:26:59;7.57;;;2.05;;
51594;SDS011;37677;53.254;6.594;2022-09-24T12:29:36;11.13;;;2.28;;
51594;SDS011;37677;53.254;6.594;2022-09-24T12:43:40;8.98;;;2.00;;
51594;SDS011;37677;53.254;6.594;2022-09-24T12:48:47;5.22;;;1.67;;
51594;SDS011;37677;53.254;6.594;2022-09-24T12:51:14;14.82;;;2.63;;
51594;SDS011;37677;53.254;6.594;2022-09-24T12:53:53;8.85;;;2.00;;
51594;SDS011;37677;53.254;6.594;2022-09-24T12:56:27;8.02;;;1.50;;
51594;SDS011;37677;53.254;6.594;2022-09-24T12:58:54;6.18;;;1.65;;
51594;SDS011;37677;53.254;6.594;2022-09-24T13:06:49;6.47;;;1.50;;
51594;SDS011;37677;53.254;6.594;2022-09-24T13:09:31;6.75;;;1.50;;
51594;SDS011;37677;53.254;6.594;2022-09-24T13:14:48;9.43;;;2.50;;
51594;SDS011;37677;53.254;6.594;2022-09-24T13:19:47;6.35;;;1.50;;
51594;SDS011;37677;53.254;6.594;2022-09-24T13:22:29;7.13;;;1.73;;
51594;SDS011;37677;53.254;6.594;2022-09-24T13:25:30;10.43;;;2.55;;
51594;SDS011;37677;53.254;6.594;2022-09-24T13:27:54;6.82;;;1.80;;
51594;SDS011;37677;53.254;6.594;2022-09-24T13:36:04;10.52;;;2.15;;
51594;SDS011;37677;53.254;6.594;2022-09-24T13:38:36;8.88;;;1.90;;
51594;SDS011;37677;53.254;6.594;2022-09-24T13:44:04;9.90;;;2.53;;
51594;SDS011;37677;53.254;6.594;2022-09-24T13:46:43;12.25;;;2.45;;
51594;SDS011;37677;53.254;6.594;2022-09-24T13:49:12;10.85;;;2.53;;
51594;SDS011;37677;53.254;6.594;2022-09-24T13:51:43;8.50;;;2.38;;
51594;SDS011;37677;53.254;6.594;2022-09-24T13:57:10;9.63;;;2.83;;
51594;SDS011;37677;53.254;6.594;2022-09-24T13:59:38;11.05;;;3.00;;
51594;SDS011;37677;53.254;6.594;2022-09-24T14:02:18;11.20;;;2.05;;
51594;SDS011;37677;53.254;6.594;2022-09-24T14:08:12;6.30;;;2.38;;
51594;SDS011;37677;53.254;6.594;2022-09-24T14:10:41;7.72;;;2.15;;
51594;SDS011;37677;53.254;6.594;2022-09-24T14:13:15;12.38;;;2.03;;
51594;SDS011;37677;53.254;6.594;2022-09-24T14:15:55;15.50;;;2.60;;
51594;SDS011;37677;53.254;6.594;2022-09-24T14:18:31;9.25;;;2.25;;
51594;SDS011;37677;53.254;6.594;2022-09-24T14:21:08;10.50;;;2.40;;
51594;SDS011;37677;53.254;6.594;2022-09-24T14:23:41;11.93;;;3.05;;
51594;SDS011;37677;53.254;6.594;2022-09-24T14:26:34;12.40;;;2.38;;
51594;SDS011;37677;53.254;6.594;2022-09-24T14:29:06;5.93;;;1.80;;
51594;SDS011;37677;53.254;6.594;2022-09-24T14:31:47;12.40;;;2.78;;
51594;SDS011;37677;53.254;6.594;2022-09-24T14:36:50;8.27;;;2.20;;
51594;SDS011;37677;53.254;6.594;2022-09-24T14:39:21;9.57;;;2.28;;
51594;SDS011;37677;53.254;6.594;2022-09-24T14:41:51;10.25;;;2.40;;
51594;SDS011;37677;53.254;6.594;2022-09-24T14:44:22;12.43;;;2.95;;
51594;SDS011;37677;53.254;6.594;2022-09-24T14:46:55;9.48;;;2.55;;
51594;SDS011;37677;53.254;6.594;2022-09-24T14:54:26;9.40;;;2.35;;
51594;SDS011;37677;53.254;6.594;2022-09-24T14:56:52;12.10;;;2.45;;
51594;SDS011;37677;53.254;6.594;2022-09-24T14:59:28;12.23;;;2.83;;
51594;SDS011;37677;53.254;6.594;2022-09-24T15:04:44;9.27;;;2.35;;
51594;SDS011;37677;53.254;6.594;2022-09-24T15:07:20;9.95;;;2.60;;
51594;SDS011;37677;53.254;6.594;2022-09-24T15:09:51;13.13;;;2.50;;
51594;SDS011;37677;53.254;6.594;2022-09-24T15:12:31;12.25;;;2.60;;
51594;SDS011;37677;53.254;6.594;2022-09-24T15:17:42;10.85;;;2.70;;
51594;SDS011;37677;53.254;6.594;2022-09-24T15:20:09;8.00;;;2.22;;
51594;SDS011;37677;53.254;6.594;2022-09-24T15:22:36;14.40;;;2.58;;
51594;SDS011;37677;53.254;6.594;2022-09-24T15:25:01;14.88;;;2.80;;
51594;SDS011;37677;53.254;6.594;2022-09-24T15:27:37;14.88;;;2.88;;
51594;SDS011;37677;53.254;6.594;2022-09-24T15:30:05;13.75;;;2.67;;
51594;SDS011;37677;53.254;6.594;2022-09-24T15:32:36;13.80;;;2.90;;
51594;SDS011;37677;53.254;6.594;2022-09-24T15:35:03;10.80;;;2.55;;
51594;SDS011;37677;53.254;6.594;2022-09-24T15:37:33;9.65;;;2.38;;
51594;SDS011;37677;53.254;6.594;2022-09-24T15:40:21;8.30;;;2.38;;
51594;SDS011;37677;53.254;6.594;2022-09-24T15:42:49;7.88;;;2.15;;
51594;SDS011;37677;53.254;6.594;2022-09-24T15:45:22;13.32;;;2.45;;
51594;SDS011;37677;53.254;6.594;2022-09-24T15:47:49;13.07;;;2.80;;
51594;SDS011;37677;53.254;6.594;2022-09-24T15:50:15;9.10;;;2.65;;
51594;SDS011;37677;53.254;6.594;2022-09-24T15:52:56;9.25;;;2.30;;
51594;SDS011;37677;53.254;6.594;2022-09-24T15:55:23;11.90;;;2.92;;
51594;SDS011;37677;53.254;6.594;2022-09-24T15:57:49;10.75;;;2.42;;
51594;SDS011;37677;53.254;6.594;2022-09-24T16:00:16;16.73;;;2.47;;
51594;SDS011;37677;53.254;6.594;2022-09-24T16:02:48;15.18;;;3.20;;
51594;SDS011;37677;53.254;6.594;2022-09-24T16:05:16;17.25;;;2.88;;
51594;SDS011;37677;53.254;6.594;2022-09-24T16:07:43;8.15;;;2.67;;
51594;SDS011;37677;53.254;6.594;2022-09-24T16:10:09;17.08;;;2.60;;
51594;SDS011;37677;53.254;6.594;2022-09-24T16:12:37;14.05;;;2.90;;
51594;SDS011;37677;53.254;6.594;2022-09-24T16:15:03;12.15;;;3.47;;
51594;SDS011;37677;53.254;6.594;2022-09-24T16:17:29;8.68;;;2.17;;
51594;SDS011;37677;53.254;6.594;2022-09-24T16:19:55;7.70;;;2.20;;
51594;SDS011;37677;53.254;6.594;2022-09-24T16:22:21;10.48;;;2.50;;
51594;SDS011;37677;53.254;6.594;2022-09-24T16:24:47;10.88;;;2.13;;
51594;SDS011;37677;53.254;6.594;2022-09-24T16:27:13;7.55;;;2.55;;
51594;SDS011;37677;53.254;6.594;2022-09-24T16:29:38;13.15;;;2.85;;
51594;SDS011;37677;53.254;6.594;2022-09-24T16:32:04;9.60;;;2.10;;
51594;SDS011;37677;53.254;6.594;2022-09-24T16:34:30;7.25;;;1.73;;
51594;SDS011;37677;53.254;6.594;2022-09-24T16:36:57;9.32;;;2.70;;
51594;SDS011;37677;53.254;6.594;2022-09-24T16:39:22;12.30;;;2.65;;
51594;SDS011;37677;53.254;6.594;2022-09-24T16:41:49;11.43;;;2.30;;
51594;SDS011;37677;53.254;6.594;2022-09-24T16:44:15;10.50;;;2.30;;
51594;SDS011;37677;53.254;6.594;2022-09-24T16:46:42;9.45;;;2.35;;
51594;SDS011;37677;53.254;6.594;2022-09-24T16:49:09;8.85;;;2.10;;
51594;SDS011;37677;53.254;6.594;2022-09-24T16:51:35;10.63;;;1.90;;
51594;SDS011;37677;53.254;6.594;2022-09-24T16:54:02;7.93;;;2.40;;
51594;SDS011;37677;53.254;6.594;2022-09-24T16:56:31;10.63;;;2.63;;
51594;SDS011;37677;53.254;6.594;2022-09-24T16:58:58;13.15;;;2.33;;
51594;SDS011;37677;53.254;6.594;2022-09-24T17:01:24;8.35;;;1.83;;
51594;SDS011;37677;53.254;6.594;2022-09-24T17:03:50;9.07;;;2.75;;
51594;SDS011;37677;53.254;6.594;2022-09-24T17:06:22;10.25;;;2.15;;
51594;SDS011;37677;53.254;6.594;2022-09-24T17:08:53;9.70;;;2.17;;
51594;SDS011;37677;53.254;6.594;2022-09-24T17:11:38;11.13;;;2.38;;
51594;SDS011;37677;53.254;6.594;2022-09-24T17:14:05;12.60;;;2.47;;
51594;SDS011;37677;53.254;6.594;2022-09-24T17:16:32;11.27;;;2.97;;
51594;SDS011;37677;53.254;6.594;2022-09-24T17:18:58;10.23;;;2.28;;
51594;SDS011;37677;53.254;6.594;2022-09-24T17:21:24;10.10;;;2.20;;
51594;SDS011;37677;53.254;6.594;2022-09-24T17:23:50;8.65;;;2.50;;
51594;SDS011;37677;53.254;6.594;2022-09-24T17:26:17;10.15;;;2.60;;
51594;SDS011;37677;53.254;6.594;2022-09-24T17:28:47;10.85;;;2.45;;
51594;SDS011;37677;53.254;6.594;2022-09-24T17:31:17;9.18;;;2.47;;
51594;SDS011;37677;53.254;6.594;2022-09-24T17:33:45;10.38;;;2.00;;
51594;SDS011;37677;53.254;6.594;2022-09-24T17:36:12;14.02;;;2.45;;
51594;SDS011;37677;53.254;6.594;2022-09-24T17:38:40;6.90;;;2.30;;
51594;SDS011;37677;53.254;6.594;2022-09-24T17:41:07;12.05;;;2.40;;
51594;SDS011;37677;53.254;6.594;2022-09-24T17:43:35;12.23;;;2.45;;